createdAt,value
2019-03-28T00:03:09.272Z,7.97
2019-03-28T00:07:14.507Z,10.10
2019-03-28T00:11:19.310Z,8.87
2019-03-28T00:15:24.058Z,7.77
2019-03-28T00:19:28.874Z,9.67
2019-03-28T00:23:55.642Z,7.23
2019-03-28T00:28:00.378Z,8.13
2019-03-28T00:32:05.190Z,5.47
2019-03-28T00:36:10.030Z,7.87
2019-03-28T00:40:14.936Z,9.00
2019-03-28T00:44:19.958Z,8.27
2019-03-28T00:48:24.668Z,7.50
2019-03-28T00:52:29.401Z,7.50
2019-03-28T00:56:46.475Z,5.87
2019-03-28T01:00:40.627Z,6.97
2019-03-28T01:04:45.407Z,8.93
2019-03-28T01:08:50.217Z,8.50
2019-03-28T01:12:54.973Z,7.97
2019-03-28T01:16:59.677Z,9.27
2019-03-28T01:21:04.604Z,10.50
2019-03-28T01:25:09.441Z,10.17
2019-03-28T01:29:14.282Z,9.43
2019-03-28T01:33:19.038Z,9.93
2019-03-28T01:37:23.790Z,11.23
2019-03-28T01:41:28.582Z,10.60
2019-03-28T01:45:33.478Z,9.33
2019-03-28T01:49:38.170Z,7.03
2019-03-28T01:53:42.919Z,9.50
2019-03-28T01:57:47.677Z,8.53
2019-03-28T02:01:52.416Z,8.77
2019-03-28T02:05:57.163Z,9.07
2019-03-28T02:10:01.980Z,8.93
2019-03-28T02:14:06.934Z,7.17
2019-03-28T02:18:11.683Z,10.67
2019-03-28T02:22:16.427Z,10.10
2019-03-28T02:26:21.173Z,11.37
2019-03-28T02:30:35.574Z,8.67
2019-03-28T02:34:40.324Z,11.43
2019-03-28T02:38:45.073Z,8.97
2019-03-28T02:42:49.966Z,9.83
2019-03-28T02:46:54.728Z,8.53
2019-03-28T02:50:59.480Z,8.37
2019-03-28T02:55:04.249Z,8.60
2019-03-28T02:59:09.016Z,9.90
2019-03-28T03:03:13.756Z,9.00
2019-03-28T03:07:18.508Z,8.30
2019-03-28T03:11:23.224Z,8.73
2019-03-28T03:15:27.928Z,9.47
2019-03-28T03:19:32.689Z,12.70
2019-03-28T03:23:37.439Z,8.03
2019-03-28T03:27:56.904Z,10.23
2019-03-28T03:31:48.960Z,7.60
2019-03-28T03:35:54.058Z,10.43
2019-03-28T03:39:58.848Z,9.10
2019-03-28T03:44:03.600Z,8.27
2019-03-28T03:48:08.345Z,8.13
2019-03-28T03:52:13.076Z,8.87
2019-03-28T03:56:17.833Z,9.43
2019-03-28T04:00:30.499Z,9.17
2019-03-28T04:04:35.193Z,10.73
2019-03-28T04:08:40.291Z,10.93
2019-03-28T04:12:45.032Z,9.17
2019-03-28T04:16:49.785Z,8.97
2019-03-28T04:20:54.535Z,8.50
2019-03-28T04:24:59.402Z,9.37
2019-03-28T04:29:04.715Z,9.50
2019-03-28T04:33:09.534Z,8.20
2019-03-28T04:37:14.648Z,11.27
2019-03-28T04:41:19.434Z,8.33
2019-03-28T04:45:24.190Z,9.83
2019-03-28T04:49:29.000Z,11.03
2019-03-28T04:53:33.764Z,10.63
2019-03-28T04:57:40.938Z,8.70
2019-03-28T05:01:58.756Z,10.40
2019-03-28T05:05:51.498Z,10.03
2019-03-28T05:09:56.246Z,8.67
2019-03-28T05:14:01.074Z,7.90
2019-03-28T05:18:06.658Z,7.93
2019-03-28T05:22:11.729Z,10.90
2019-03-28T05:26:16.491Z,8.73
2019-03-28T05:30:21.221Z,6.97
2019-03-28T05:34:25.959Z,6.97
2019-03-28T05:38:30.798Z,9.97
2019-03-28T05:42:35.519Z,8.40
2019-03-28T05:46:40.297Z,10.10
2019-03-28T05:50:44.980Z,11.17
2019-03-28T05:54:49.989Z,7.63
2019-03-28T05:58:54.787Z,7.30
2019-03-28T06:02:59.535Z,9.53
2019-03-28T06:07:04.282Z,7.60
2019-03-28T06:11:08.986Z,10.67
2019-03-28T06:15:14.256Z,8.03
2019-03-28T06:19:19.017Z,13.37
2019-03-28T06:23:23.803Z,8.93
2019-03-28T06:27:28.622Z,10.13
2019-03-28T06:31:33.367Z,9.07
2019-03-28T06:35:38.143Z,7.97
2019-03-28T06:39:42.901Z,8.63
2019-03-28T06:43:47.658Z,8.97
2019-03-28T06:47:52.426Z,7.27
2019-03-28T06:51:57.167Z,7.20
2019-03-28T06:56:01.907Z,7.07
2019-03-28T07:00:07.982Z,8.23
2019-03-28T07:04:12.735Z,8.57
2019-03-28T07:08:17.492Z,7.57
2019-03-28T07:12:22.218Z,9.17
2019-03-28T07:16:27.073Z,9.20
2019-03-28T07:20:32.016Z,7.23
2019-03-28T07:24:36.789Z,11.30
2019-03-28T07:28:41.595Z,9.43
2019-03-28T07:32:46.522Z,6.40
2019-03-28T07:36:51.344Z,7.07
2019-03-28T07:40:56.101Z,7.93
2019-03-28T07:45:01.197Z,7.53
2019-03-28T07:49:06.091Z,8.90
2019-03-28T07:53:10.844Z,8.10
2019-03-28T07:57:15.589Z,8.30
2019-03-28T08:01:20.314Z,7.40
2019-03-28T08:05:25.086Z,10.03
2019-03-28T08:09:36.577Z,9.87
2019-03-28T08:13:36.624Z,8.27
2019-03-28T08:17:41.397Z,9.43
2019-03-28T08:21:46.462Z,7.17
2019-03-28T08:25:51.339Z,8.50
2019-03-28T08:29:57.832Z,9.40
2019-03-28T08:34:02.990Z,9.93
2019-03-28T08:38:10.134Z,8.20
2019-03-28T08:42:15.225Z,8.23
2019-03-28T08:46:19.937Z,8.47
2019-03-28T08:50:25.107Z,10.10
2019-03-28T08:54:29.861Z,7.40
2019-03-28T08:58:37.974Z,10.00
2019-03-28T09:02:41.113Z,7.87
2019-03-28T09:06:46.179Z,9.23
2019-03-28T09:10:51.359Z,8.47
2019-03-28T09:23:41.985Z,10.17
2019-03-28T09:27:46.761Z,11.20
2019-03-28T09:31:52.518Z,8.60
2019-03-28T09:35:57.256Z,7.97
2019-03-28T09:40:02.021Z,7.13
2019-03-28T09:44:06.790Z,8.17
2019-03-28T09:48:12.153Z,10.20
2019-03-28T09:52:16.971Z,9.03
2019-03-28T09:56:21.687Z,7.77
2019-03-28T10:00:26.581Z,6.73
2019-03-28T10:04:31.283Z,8.80
2019-03-28T10:08:36.517Z,6.77
2019-03-28T10:12:44.053Z,7.57
2019-03-28T10:16:48.181Z,9.47
2019-03-28T10:20:52.917Z,9.00
2019-03-28T10:24:57.773Z,6.00
2019-03-28T10:29:02.533Z,6.97
2019-03-28T10:33:07.688Z,7.50
2019-03-28T10:37:12.543Z,9.80
2019-03-28T10:41:17.403Z,7.03
2019-03-28T10:45:22.141Z,8.57
2019-03-28T10:49:26.867Z,7.33
2019-03-28T10:53:31.604Z,8.60
2019-03-28T10:57:36.352Z,9.73
2019-03-28T11:01:49.141Z,6.97
2019-03-28T11:05:47.701Z,6.93
2019-03-28T11:09:52.542Z,5.07
2019-03-28T11:13:57.307Z,8.13
2019-03-28T11:18:02.071Z,8.07
2019-03-28T11:22:06.808Z,8.37
2019-03-28T11:26:11.540Z,6.90
2019-03-28T11:30:18.395Z,9.87
2019-03-28T11:34:23.129Z,7.17
2019-03-28T11:38:28.787Z,6.43
2019-03-28T11:42:33.608Z,7.47
2019-03-28T11:46:38.351Z,7.00
2019-03-28T11:50:43.112Z,4.90
2019-03-28T11:54:47.922Z,9.87
2019-03-28T11:58:52.720Z,9.07
2019-03-28T12:02:57.492Z,8.90
2019-03-28T12:07:02.266Z,6.03
2019-03-28T12:11:07.288Z,6.63
2019-03-28T12:15:12.757Z,5.77
2019-03-28T12:19:17.864Z,5.63
2019-03-28T12:23:22.790Z,5.47
2019-03-28T12:27:27.659Z,3.60
2019-03-28T12:31:33.375Z,4.43
2019-03-28T12:35:38.092Z,4.73
2019-03-28T12:39:43.093Z,3.47
2019-03-28T12:43:47.829Z,4.47
2019-03-28T12:47:52.566Z,4.30
2019-03-28T12:51:57.342Z,4.73
2019-03-28T12:56:02.085Z,6.23
2019-03-28T13:00:07.911Z,6.37
2019-03-28T13:04:12.697Z,4.13
2019-03-28T13:08:17.758Z,3.43
2019-03-28T13:12:22.812Z,4.17
2019-03-28T13:16:27.707Z,4.03
2019-03-28T13:20:32.491Z,4.00
2019-03-28T13:24:37.320Z,3.47
2019-03-28T13:28:42.056Z,4.10
2019-03-28T13:32:46.798Z,2.30
2019-03-28T13:36:51.527Z,4.53
2019-03-28T13:40:56.280Z,2.00
2019-03-28T13:45:02.219Z,2.37
2019-03-28T13:49:07.063Z,2.20
2019-03-28T13:53:11.899Z,2.60
2019-03-28T13:57:16.731Z,3.97
2019-03-28T14:01:22.564Z,3.53
2019-03-28T14:05:27.499Z,3.57
2019-03-28T14:09:32.261Z,3.73
2019-03-28T14:13:37.319Z,3.43
2019-03-28T14:17:42.254Z,4.03
2019-03-28T14:21:46.959Z,2.23
2019-03-28T14:25:51.718Z,3.77
2019-03-28T14:29:56.455Z,1.80
2019-03-28T14:34:01.284Z,2.93
2019-03-28T14:38:05.996Z,1.60
2019-03-28T14:42:10.796Z,2.57
2019-03-28T14:46:15.597Z,3.40
2019-03-28T14:50:41.860Z,1.93
2019-03-28T14:54:46.583Z,3.13
2019-03-28T14:58:53.715Z,3.27
2019-03-28T15:02:58.471Z,4.23
2019-03-28T15:07:03.182Z,2.60
2019-03-28T15:11:07.926Z,2.87
2019-03-28T15:15:12.702Z,3.40
2019-03-28T15:19:17.451Z,3.30
2019-03-28T15:23:22.207Z,3.90
2019-03-28T15:27:27.321Z,4.43
2019-03-28T15:31:32.125Z,3.67
2019-03-28T15:35:36.880Z,2.50
2019-03-28T15:39:41.643Z,3.70
2019-03-28T15:43:46.432Z,5.10
2019-03-28T15:47:52.182Z,3.27
2019-03-28T15:51:57.153Z,3.40
2019-03-28T15:56:02.268Z,5.27
2019-03-28T16:00:07.400Z,3.10
2019-03-28T16:04:12.148Z,3.33
2019-03-28T16:08:16.865Z,3.67
2019-03-28T16:12:21.623Z,3.17
2019-03-28T16:16:26.468Z,2.70
2019-03-28T16:20:31.217Z,4.33
2019-03-28T16:24:36.025Z,3.53
2019-03-28T16:28:41.701Z,4.13
2019-03-28T16:32:47.643Z,3.23
2019-03-28T16:36:52.405Z,2.87
2019-03-28T16:40:57.788Z,3.40
2019-03-28T16:45:02.557Z,2.80
2019-03-28T16:49:08.190Z,3.37
2019-03-28T16:53:14.692Z,3.63
2019-03-28T16:57:19.777Z,3.60
2019-03-28T17:01:25.040Z,3.67
2019-03-28T17:05:29.777Z,3.23
2019-03-28T17:09:37.544Z,2.67
2019-03-28T17:13:41.833Z,3.33
2019-03-28T17:17:46.595Z,3.53
2019-03-28T17:21:51.316Z,4.57
2019-03-28T17:25:56.069Z,3.73
2019-03-28T17:30:01.031Z,3.30
2019-03-28T17:34:05.780Z,3.77
2019-03-28T17:38:10.582Z,4.67
2019-03-28T17:42:16.288Z,3.97
2019-03-28T17:46:21.348Z,3.57
2019-03-28T17:50:26.317Z,3.93
2019-03-28T17:54:31.068Z,5.33
2019-03-28T17:58:35.897Z,3.90
2019-03-28T18:02:40.784Z,4.30
2019-03-28T18:06:45.648Z,5.37
2019-03-28T18:10:50.583Z,7.90
2019-03-28T18:14:55.319Z,4.77
2019-03-28T18:19:00.166Z,5.90
2019-03-28T18:23:04.926Z,5.50
2019-03-28T18:27:09.688Z,5.33
2019-03-28T18:31:14.497Z,6.90
2019-03-28T18:35:19.371Z,7.40
2019-03-28T18:39:24.276Z,6.80
2019-03-28T18:43:29.156Z,8.83
2019-03-28T18:47:33.953Z,8.03
2019-03-28T18:51:38.711Z,10.30
2019-03-28T18:55:43.683Z,8.20
2019-03-28T18:59:49.682Z,7.90
2019-03-28T19:03:54.660Z,9.80
2019-03-28T19:07:59.418Z,9.90
2019-03-28T19:12:04.173Z,10.50
2019-03-28T19:16:09.131Z,10.87
2019-03-28T19:20:14.195Z,10.90
2019-03-28T19:24:19.035Z,11.70
2019-03-28T19:28:29.007Z,11.90
2019-03-28T19:32:30.394Z,10.10
2019-03-28T19:36:35.728Z,9.60
2019-03-28T19:40:40.466Z,11.30
2019-03-28T19:44:45.418Z,10.17
2019-03-28T19:48:50.258Z,14.90
2019-03-28T19:52:55.049Z,9.73
2019-03-28T19:56:59.804Z,11.23
2019-03-28T20:01:05.157Z,12.47
2019-03-28T20:05:10.158Z,12.53
2019-03-28T20:09:16.459Z,14.03
2019-03-28T20:13:21.419Z,11.97
2019-03-28T20:17:26.164Z,13.40
2019-03-28T20:21:31.051Z,12.80
2019-03-28T20:25:35.827Z,11.53
2019-03-28T20:29:40.621Z,13.33
2019-03-28T20:33:45.470Z,12.80
2019-03-28T20:37:50.209Z,13.47
2019-03-28T20:41:54.984Z,13.93
2019-03-28T20:45:59.729Z,12.70
2019-03-28T20:50:04.908Z,12.20
2019-03-28T20:54:09.650Z,13.37
2019-03-28T20:58:14.461Z,12.63
2019-03-28T21:02:19.273Z,11.27
2019-03-28T21:06:24.034Z,12.50
2019-03-28T21:10:33.006Z,11.67
2019-03-28T21:14:35.393Z,11.40
2019-03-28T21:18:40.109Z,11.50
2019-03-28T21:22:44.911Z,11.70
2019-03-28T21:26:49.617Z,13.80
2019-03-28T21:30:54.408Z,12.70
2019-03-28T21:34:59.179Z,11.53
2019-03-28T21:39:05.395Z,12.13
2019-03-28T21:43:10.107Z,13.47
2019-03-28T21:47:14.863Z,12.40
2019-03-28T21:51:20.217Z,10.60
2019-03-28T21:55:25.376Z,12.67
2019-03-28T21:59:30.155Z,12.40
2019-03-28T22:03:34.937Z,11.67
2019-03-28T22:07:40.407Z,12.63
2019-03-28T22:11:45.806Z,11.47
2019-03-28T22:15:50.517Z,10.67
2019-03-28T22:19:55.279Z,12.50
2019-03-28T22:24:00.234Z,12.60
2019-03-28T22:28:05.050Z,11.97
2019-03-28T22:32:11.752Z,10.83
2019-03-28T22:36:17.919Z,12.30
2019-03-28T22:40:22.930Z,11.13
2019-03-28T22:44:27.683Z,11.40
2019-03-28T22:48:32.708Z,13.10
2019-03-28T22:52:37.458Z,12.23
2019-03-28T22:56:42.213Z,11.33
2019-03-28T23:00:50.558Z,9.37
2019-03-28T23:04:55.327Z,10.43
2019-03-28T23:09:00.087Z,12.23
2019-03-28T23:13:04.814Z,13.17
2019-03-28T23:17:09.665Z,8.97
2019-03-28T23:21:15.844Z,11.13
2019-03-28T23:25:20.804Z,11.93
2019-03-28T23:29:25.601Z,11.13
2019-03-28T23:33:30.917Z,12.23
2019-03-28T23:37:35.941Z,11.50
2019-03-28T23:41:40.647Z,11.40
2019-03-28T23:45:45.818Z,10.00
2019-03-28T23:49:50.557Z,11.87
2019-03-28T23:53:55.454Z,12.83
2019-03-28T23:58:00.303Z,12.43
